createdAt,value
2018-09-26T00:00:45.950Z,15.76
2018-09-26T00:03:11.884Z,15.71
2018-09-26T00:05:37.832Z,15.71
2018-09-26T00:08:03.800Z,15.68
2018-09-26T00:10:29.769Z,15.68
2018-09-26T00:12:55.715Z,15.69
2018-09-26T00:15:21.692Z,15.63
2018-09-26T00:17:47.633Z,15.65
2018-09-26T00:20:13.602Z,15.65
2018-09-26T00:22:39.573Z,15.61
2018-09-26T00:25:05.560Z,15.52
2018-09-26T00:27:31.514Z,15.37
2018-09-26T00:29:57.463Z,15.32
2018-09-26T00:32:23.420Z,15.29
2018-09-26T00:34:49.372Z,15.20
2018-09-26T00:37:16.234Z,15.20
2018-09-26T00:39:42.180Z,15.19
2018-09-26T00:42:08.170Z,15.17
2018-09-26T00:44:34.128Z,15.15
2018-09-26T00:47:00.108Z,15.20
2018-09-26T00:49:26.071Z,15.21
2018-09-26T00:51:52.041Z,15.18
2018-09-26T00:54:18.013Z,15.20
2018-09-26T00:56:43.974Z,15.18
2018-09-26T00:59:09.926Z,15.12
2018-09-26T01:01:35.907Z,15.12
2018-09-26T01:04:01.872Z,15.12
2018-09-26T01:06:27.855Z,15.11
2018-09-26T01:08:53.886Z,15.04
2018-09-26T01:11:19.864Z,15.08
2018-09-26T01:13:45.820Z,15.09
2018-09-26T01:16:11.810Z,15.05
2018-09-26T01:18:37.773Z,14.99
2018-09-26T01:21:03.733Z,15.02
2018-09-26T01:23:29.691Z,15.04
2018-09-26T01:25:55.653Z,14.97
2018-09-26T01:28:21.618Z,14.93
2018-09-26T01:30:47.577Z,14.93
2018-09-26T01:33:13.527Z,14.89
2018-09-26T01:35:39.461Z,14.94
2018-09-26T01:38:05.400Z,14.83
2018-09-26T01:40:31.378Z,14.76
2018-09-26T01:42:57.356Z,14.75
2018-09-26T01:45:23.324Z,14.75
2018-09-26T01:47:49.271Z,14.71
2018-09-26T01:50:15.201Z,14.65
2018-09-26T01:52:41.161Z,14.64
2018-09-26T01:55:07.141Z,14.63
2018-09-26T01:57:33.100Z,14.58
2018-09-26T01:59:59.058Z,14.58
2018-09-26T02:02:25.028Z,14.56
2018-09-26T02:04:50.992Z,14.63
2018-09-26T02:07:16.981Z,14.57
2018-09-26T02:09:42.957Z,14.60
2018-09-26T02:12:08.892Z,14.51
2018-09-26T02:14:34.864Z,14.46
2018-09-26T02:17:00.836Z,14.50
2018-09-26T02:19:26.766Z,14.50
2018-09-26T02:21:52.737Z,14.51
2018-09-26T02:24:18.698Z,14.50
2018-09-26T02:26:44.667Z,14.48
2018-09-26T02:29:10.630Z,14.45
2018-09-26T02:31:36.588Z,14.47
2018-09-26T02:34:02.527Z,14.49
2018-09-26T02:36:28.462Z,14.49
2018-09-26T02:38:54.430Z,14.47
2018-09-26T02:41:20.378Z,14.43
2018-09-26T02:43:46.319Z,14.38
2018-09-26T02:46:12.265Z,14.35
2018-09-26T02:48:38.218Z,14.25
2018-09-26T02:51:04.187Z,14.37
2018-09-26T02:53:30.149Z,14.46
2018-09-26T02:55:56.111Z,14.55
2018-09-26T02:58:22.106Z,14.44
2018-09-26T03:00:48.058Z,14.31
2018-09-26T03:03:14.007Z,14.32
2018-09-26T03:05:39.985Z,14.36
2018-09-26T03:08:06.017Z,14.35
2018-09-26T03:10:31.997Z,14.34
2018-09-26T03:12:58.057Z,14.37
2018-09-26T03:15:23.989Z,14.34
2018-09-26T03:17:49.932Z,14.22
2018-09-26T03:20:15.883Z,14.20
2018-09-26T03:22:41.821Z,14.16
2018-09-26T03:25:07.799Z,14.11
2018-09-26T03:27:33.749Z,14.12
2018-09-26T03:29:59.712Z,14.09
2018-09-26T03:32:25.636Z,14.15
2018-09-26T03:34:51.591Z,14.13
2018-09-26T03:37:17.550Z,14.08
2018-09-26T03:39:43.612Z,14.00
2018-09-26T03:42:09.574Z,13.96
2018-09-26T03:44:35.528Z,13.93
2018-09-26T03:47:01.476Z,13.99
2018-09-26T03:49:27.455Z,14.03
2018-09-26T03:51:53.393Z,14.09
2018-09-26T03:54:19.380Z,14.20
2018-09-26T03:56:45.390Z,14.22
2018-09-26T03:59:11.336Z,14.35
2018-09-26T04:01:37.276Z,14.33
2018-09-26T04:04:03.245Z,14.19
2018-09-26T04:06:29.203Z,14.04
2018-09-26T04:08:55.166Z,13.92
2018-09-26T04:11:21.094Z,13.79
2018-09-26T04:13:47.136Z,13.80
2018-09-26T04:16:13.203Z,13.77
2018-09-26T04:18:39.181Z,13.74
2018-09-26T04:21:05.158Z,13.70
2018-09-26T04:23:31.114Z,13.68
2018-09-26T04:25:57.072Z,13.64
2018-09-26T04:28:23.060Z,13.54
2018-09-26T04:30:49.085Z,13.49
2018-09-26T04:33:15.346Z,13.45
2018-09-26T04:35:40.989Z,13.42
2018-09-26T04:38:06.933Z,13.44
2018-09-26T04:40:32.894Z,13.59
2018-09-26T04:42:58.853Z,13.61
2018-09-26T04:45:24.828Z,13.55
2018-09-26T04:47:50.778Z,13.56
2018-09-26T04:50:16.743Z,13.50
2018-09-26T04:52:42.703Z,13.46
2018-09-26T04:55:08.677Z,13.46
2018-09-26T04:57:34.642Z,13.45
2018-09-26T05:00:00.652Z,13.43
2018-09-26T05:02:26.624Z,13.41
2018-09-26T05:04:52.708Z,13.54
2018-09-26T05:07:18.661Z,13.60
2018-09-26T05:09:44.695Z,13.55
2018-09-26T05:12:10.660Z,13.54
2018-09-26T05:14:36.913Z,13.51
2018-09-26T05:17:02.892Z,13.43
2018-09-26T05:19:28.833Z,13.34
2018-09-26T05:21:54.822Z,13.30
2018-09-26T05:24:20.765Z,13.21
2018-09-26T05:26:46.697Z,13.38
2018-09-26T05:29:12.658Z,13.36
2018-09-26T05:31:38.601Z,13.33
2018-09-26T05:34:04.551Z,13.44
2018-09-26T05:36:30.521Z,13.46
2018-09-26T05:38:56.462Z,13.46
2018-09-26T05:41:22.415Z,13.40
2018-09-26T05:43:48.370Z,13.56
2018-09-26T05:46:14.310Z,13.89
2018-09-26T05:48:40.240Z,14.12
2018-09-26T05:51:06.190Z,14.14
2018-09-26T05:53:32.186Z,14.27
2018-09-26T05:55:58.139Z,14.31
2018-09-26T05:58:24.100Z,14.43
2018-09-26T06:00:50.070Z,14.57
2018-09-26T06:03:16.000Z,14.72
2018-09-26T06:05:41.973Z,14.82
2018-09-26T06:08:07.950Z,14.96
2018-09-26T06:10:33.899Z,15.10
2018-09-26T06:12:59.883Z,15.16
2018-09-26T06:15:25.799Z,15.18
2018-09-26T06:17:51.752Z,15.19
2018-09-26T06:20:18.385Z,15.10
2018-09-26T06:22:44.415Z,15.17
2018-09-26T06:25:10.372Z,14.42
2018-09-26T06:27:36.316Z,15.58
2018-09-26T06:30:02.284Z,15.75
2018-09-26T06:32:28.844Z,15.80
2018-09-26T06:34:54.945Z,15.88
2018-09-26T06:37:20.868Z,16.20
2018-09-26T06:39:46.838Z,16.54
2018-09-26T06:42:12.783Z,16.72
2018-09-26T06:44:38.764Z,16.80
2018-09-26T06:47:04.744Z,17.02
2018-09-26T06:49:30.688Z,17.10
2018-09-26T06:51:56.651Z,17.09
2018-09-26T06:54:22.601Z,17.20
2018-09-26T06:56:48.588Z,17.22
2018-09-26T06:59:14.556Z,17.38
2018-09-26T07:01:40.514Z,17.50
2018-09-26T07:04:06.473Z,17.70
2018-09-26T07:06:32.436Z,17.99
2018-09-26T07:08:58.390Z,18.01
2018-09-26T07:11:24.361Z,17.98
2018-09-26T07:13:50.305Z,17.71
2018-09-26T07:16:16.234Z,17.66
2018-09-26T07:18:42.173Z,17.70
2018-09-26T07:21:08.128Z,17.72
2018-09-26T07:23:34.100Z,17.73
2018-09-26T07:26:00.053Z,17.63
2018-09-26T07:28:26.015Z,17.67
2018-09-26T07:30:51.983Z,17.69
2018-09-26T07:33:17.940Z,17.81
2018-09-26T07:35:43.963Z,17.98
2018-09-26T07:38:09.950Z,18.19
2018-09-26T07:40:35.910Z,18.34
2018-09-26T07:43:01.888Z,18.54
2018-09-26T07:45:27.935Z,18.81
2018-09-26T07:47:53.871Z,19.04
2018-09-26T07:50:19.822Z,19.22
2018-09-26T07:52:45.769Z,19.26
2018-09-26T07:55:11.724Z,19.39
2018-09-26T07:57:37.691Z,19.54
2018-09-26T08:00:03.751Z,19.72
2018-09-26T08:02:29.705Z,19.74
2018-09-26T08:04:55.667Z,19.85
2018-09-26T08:07:21.623Z,19.85
2018-09-26T08:09:47.581Z,19.82
2018-09-26T08:12:13.530Z,19.62
2018-09-26T08:14:39.484Z,19.33
2018-09-26T08:17:07.497Z,19.25
2018-09-26T08:19:33.455Z,19.17
2018-09-26T08:21:59.395Z,19.48
2018-09-26T08:24:25.344Z,19.54
2018-09-26T08:26:51.282Z,19.59
2018-09-26T08:29:17.228Z,19.89
2018-09-26T08:31:43.183Z,20.11
2018-09-26T08:34:09.125Z,20.40
2018-09-26T08:36:35.053Z,20.67
2018-09-26T08:39:01.034Z,20.82
2018-09-26T08:41:27.019Z,20.99
2018-09-26T08:43:52.996Z,20.97
2018-09-26T08:46:18.960Z,21.04
2018-09-26T08:48:44.901Z,21.09
2018-09-26T08:51:10.853Z,21.07
2018-09-26T08:53:36.889Z,21.15
2018-09-26T08:56:02.821Z,21.03
2018-09-26T08:58:28.756Z,20.78
2018-09-26T09:00:54.699Z,21.00
2018-09-26T09:03:20.658Z,21.22
2018-09-26T09:05:46.608Z,21.33
2018-09-26T09:08:12.595Z,21.37
2018-09-26T09:10:38.560Z,21.18
2018-09-26T09:13:04.526Z,21.11
2018-09-26T09:15:30.489Z,21.17
2018-09-26T09:17:56.495Z,21.34
2018-09-26T09:20:22.491Z,21.54
2018-09-26T09:22:48.468Z,21.60
2018-09-26T09:25:14.396Z,21.59
2018-09-26T09:27:40.457Z,21.50
2018-09-26T09:30:06.409Z,21.52
2018-09-26T09:32:32.389Z,21.48
2018-09-26T09:34:58.363Z,21.55
2018-09-26T09:37:24.362Z,21.69
2018-09-26T09:39:50.308Z,21.74
2018-09-26T09:42:16.268Z,21.69
2018-09-26T09:44:42.288Z,21.59
2018-09-26T09:47:08.259Z,21.61
2018-09-26T09:49:34.231Z,21.57
2018-09-26T09:52:00.181Z,21.61
2018-09-26T09:54:26.139Z,21.69
2018-09-26T09:56:52.288Z,21.71
2018-09-26T09:59:18.350Z,21.71
2018-09-26T10:01:44.325Z,21.57
2018-09-26T10:04:10.286Z,21.57
2018-09-26T10:06:36.257Z,21.61
2018-09-26T10:09:02.232Z,21.66
2018-09-26T10:11:28.210Z,21.47
2018-09-26T10:13:54.172Z,21.49
2018-09-26T10:16:20.139Z,21.55
2018-09-26T10:18:46.116Z,21.45
2018-09-26T10:21:12.070Z,21.33
2018-09-26T10:23:38.036Z,21.43
2018-09-26T10:26:03.991Z,21.51
2018-09-26T10:28:29.947Z,21.53
2018-09-26T10:30:55.916Z,21.52
2018-09-26T10:33:21.881Z,21.59
2018-09-26T10:35:47.839Z,21.58
2018-09-26T10:38:13.873Z,21.51
2018-09-26T10:43:12.221Z,21.47
2018-09-26T10:45:38.191Z,21.66
2018-09-26T10:48:04.144Z,21.55
2018-09-26T10:50:30.101Z,21.59
2018-09-26T10:52:56.045Z,21.59
2018-09-26T10:55:22.004Z,21.81
2018-09-26T10:57:47.973Z,21.96
2018-09-26T11:00:13.959Z,22.06
2018-09-26T11:02:39.927Z,22.10
2018-09-26T11:05:05.901Z,22.05
2018-09-26T11:07:31.873Z,22.02
2018-09-26T11:09:57.847Z,22.08
2018-09-26T11:12:23.825Z,21.97
2018-09-26T11:14:49.770Z,22.06
2018-09-26T11:17:15.726Z,22.02
2018-09-26T11:19:41.663Z,22.08
2018-09-26T11:22:07.659Z,22.03
2018-09-26T11:24:33.598Z,22.06
2018-09-26T11:26:59.549Z,22.12
2018-09-26T11:29:25.503Z,22.02
2018-09-26T11:31:51.457Z,22.11
2018-09-26T11:34:17.474Z,22.12
2018-09-26T11:36:43.402Z,22.15
2018-09-26T11:39:09.390Z,22.16
2018-09-26T11:41:35.370Z,22.23
2018-09-26T11:44:01.359Z,21.99
2018-09-26T11:46:27.345Z,21.79
2018-09-26T11:48:53.314Z,21.92
2018-09-26T11:51:19.310Z,22.01
2018-09-26T11:53:45.276Z,22.16
2018-09-26T11:56:11.222Z,22.16
2018-09-26T11:58:37.157Z,22.23
2018-09-26T12:01:03.092Z,22.09
2018-09-26T12:03:29.057Z,21.95
2018-09-26T12:05:55.029Z,21.94
2018-09-26T12:08:21.059Z,22.12
2018-09-26T12:10:46.996Z,22.20
2018-09-26T12:13:12.959Z,22.16
2018-09-26T12:15:38.911Z,22.27
2018-09-26T12:18:04.968Z,22.23
2018-09-26T12:20:31.050Z,22.31
2018-09-26T12:22:57.356Z,22.36
2018-09-26T12:25:23.494Z,22.38
2018-09-26T12:27:49.396Z,22.41
2018-09-26T12:30:15.452Z,22.43
2018-09-26T12:32:41.395Z,22.45
2018-09-26T12:35:07.348Z,22.38
2018-09-26T12:37:33.298Z,22.44
2018-09-26T12:39:59.266Z,22.47
2018-09-26T12:42:25.381Z,22.42
2018-09-26T12:44:51.342Z,22.34
2018-09-26T12:47:17.357Z,22.43
2018-09-26T12:49:43.295Z,22.46
2018-09-26T12:52:09.264Z,22.47
2018-09-26T12:54:35.200Z,22.52
2018-09-26T12:57:01.158Z,22.54
2018-09-26T12:59:27.108Z,22.54
2018-09-26T13:01:53.113Z,22.55
2018-09-26T13:04:19.102Z,22.54
2018-09-26T13:06:45.040Z,22.58
2018-09-26T13:09:11.022Z,22.50
2018-09-26T13:11:36.980Z,22.55
2018-09-26T13:14:02.947Z,22.60
2018-09-26T13:16:28.905Z,22.61
2018-09-26T13:18:54.893Z,22.62
2018-09-26T13:21:20.879Z,22.64
2018-09-26T13:23:46.871Z,22.64
2018-09-26T13:26:12.844Z,22.66
2018-09-26T13:28:38.816Z,22.68
2018-09-26T13:31:04.802Z,22.67
2018-09-26T13:33:30.776Z,22.67
2018-09-26T13:35:56.810Z,22.68
2018-09-26T13:38:22.843Z,22.67
2018-09-26T13:40:48.771Z,22.66
2018-09-26T13:43:14.760Z,22.67
2018-09-26T13:45:40.758Z,22.68
2018-09-26T13:48:06.659Z,22.67
2018-09-26T13:50:32.641Z,22.68
2018-09-26T13:52:58.595Z,22.68
2018-09-26T13:55:24.566Z,22.70
2018-09-26T13:57:50.516Z,22.72
2018-09-26T14:00:16.493Z,22.73
2018-09-26T14:02:42.500Z,22.76
2018-09-26T14:05:08.453Z,22.76
2018-09-26T14:07:34.397Z,22.79
2018-09-26T14:10:00.344Z,22.81
2018-09-26T14:12:26.362Z,22.79
2018-09-26T14:14:52.259Z,22.79
2018-09-26T14:17:22.106Z,22.80
2018-09-26T14:19:48.141Z,22.88
2018-09-26T14:22:14.151Z,22.84
2018-09-26T14:24:40.128Z,22.80
2018-09-26T14:27:06.086Z,22.87
2018-09-26T14:29:32.171Z,22.89
2018-09-26T14:31:58.142Z,22.90
2018-09-26T14:34:24.104Z,22.86
2018-09-26T14:36:50.062Z,22.90
2018-09-26T14:39:16.119Z,22.92
2018-09-26T14:41:42.001Z,22.92
2018-09-26T14:44:08.016Z,22.93
2018-09-26T14:46:33.978Z,22.95
2018-09-26T14:49:00.020Z,22.94
2018-09-26T14:51:25.993Z,22.96
2018-09-26T14:53:51.972Z,22.96
2018-09-26T14:56:17.936Z,22.96
2018-09-26T14:58:43.881Z,22.96
2018-09-26T15:01:09.829Z,22.95
2018-09-26T15:03:35.781Z,22.94
2018-09-26T15:06:01.757Z,22.94
2018-09-26T15:08:27.871Z,22.93
2018-09-26T15:10:53.709Z,22.92
2018-09-26T15:13:19.656Z,22.90
2018-09-26T15:15:45.608Z,22.92
2018-09-26T15:18:11.608Z,22.93
2018-09-26T15:20:37.668Z,22.93
2018-09-26T15:23:03.573Z,22.94
2018-09-26T15:25:29.544Z,22.94
2018-09-26T15:27:55.556Z,22.94
2018-09-26T15:30:21.588Z,22.92
2018-09-26T15:32:47.514Z,22.92
2018-09-26T15:35:13.497Z,22.92
2018-09-26T15:37:43.367Z,22.88
2018-09-26T15:40:09.402Z,22.90
2018-09-26T15:42:35.320Z,22.90
2018-09-26T15:45:01.277Z,22.90
2018-09-26T15:47:27.307Z,22.90
2018-09-26T15:49:53.265Z,22.91
2018-09-26T15:52:19.239Z,22.87
2018-09-26T15:54:45.219Z,22.87
2018-09-26T15:57:11.193Z,22.86
2018-09-26T15:59:37.262Z,22.86
2018-09-26T16:02:03.251Z,22.85
2018-09-26T16:04:29.262Z,22.82
2018-09-26T16:06:55.225Z,22.80
2018-09-26T16:09:21.194Z,22.84
2018-09-26T16:11:47.178Z,22.81
2018-09-26T16:14:13.188Z,22.79
2018-09-26T16:16:39.195Z,22.77
2018-09-26T16:19:05.273Z,22.74
2018-09-26T16:21:31.242Z,22.70
2018-09-26T16:23:57.277Z,22.68
2018-09-26T16:26:23.317Z,22.66
2018-09-26T16:28:49.227Z,22.65
2018-09-26T16:31:15.201Z,22.64
2018-09-26T16:33:41.144Z,22.63
2018-09-26T16:36:07.194Z,22.65
2018-09-26T16:38:33.144Z,22.62
2018-09-26T16:40:59.146Z,22.59
2018-09-26T16:43:25.112Z,22.54
2018-09-26T16:45:52.156Z,22.54
2018-09-26T16:48:18.130Z,22.54
2018-09-26T16:50:44.127Z,22.50
2018-09-26T16:53:10.074Z,22.43
2018-09-26T16:55:36.036Z,22.42
2018-09-26T16:58:01.995Z,22.41
2018-09-26T17:00:27.942Z,22.38
2018-09-26T17:02:53.930Z,22.28
2018-09-26T17:05:19.898Z,22.14
2018-09-26T17:07:45.864Z,22.10
2018-09-26T17:10:11.835Z,22.09
2018-09-26T17:12:37.794Z,22.11
2018-09-26T17:15:03.768Z,22.06
2018-09-26T17:17:29.740Z,21.99
2018-09-26T17:19:55.686Z,21.93
2018-09-26T17:22:21.647Z,21.84
2018-09-26T17:24:47.590Z,21.82
2018-09-26T17:27:13.538Z,21.79
2018-09-26T17:29:39.517Z,21.71
2018-09-26T17:32:05.544Z,21.63
2018-09-26T17:34:31.542Z,21.53
2018-09-26T17:36:57.524Z,21.49
2018-09-26T17:39:23.548Z,21.50
2018-09-26T17:41:49.545Z,21.48
2018-09-26T17:44:15.510Z,21.42
2018-09-26T17:46:41.512Z,21.43
2018-09-26T17:49:07.528Z,21.42
2018-09-26T17:51:33.719Z,21.39
2018-09-26T17:53:59.683Z,21.36
2018-09-26T17:56:25.656Z,21.37
2018-09-26T17:58:51.636Z,21.32
2018-09-26T18:01:17.602Z,21.28
2018-09-26T18:03:43.551Z,21.24
2018-09-26T18:06:09.488Z,21.18
2018-09-26T18:08:35.491Z,21.08
2018-09-26T18:11:01.565Z,21.05
2018-09-26T18:13:27.608Z,21.03
2018-09-26T18:15:53.502Z,20.96
2018-09-26T18:18:19.441Z,20.94
2018-09-26T18:20:45.441Z,20.91
2018-09-26T18:23:11.508Z,20.92
2018-09-26T18:25:37.421Z,20.89
2018-09-26T18:28:03.438Z,20.88
2018-09-26T18:30:29.390Z,20.83
2018-09-26T18:32:55.351Z,20.79
2018-09-26T18:35:21.303Z,20.75
2018-09-26T18:37:47.289Z,20.72
2018-09-26T18:40:13.451Z,20.77
2018-09-26T18:42:39.436Z,20.75
2018-09-26T18:45:05.459Z,20.75
2018-09-26T18:47:31.416Z,20.75
2018-09-26T18:49:57.428Z,20.73
2018-09-26T18:52:23.486Z,20.63
2018-09-26T18:54:49.460Z,20.58
2018-09-26T18:57:15.480Z,20.56
2018-09-26T18:59:41.471Z,20.58
2018-09-26T19:02:07.554Z,20.60
2018-09-26T19:04:33.624Z,20.59
2018-09-26T19:06:59.586Z,20.55
2018-09-26T19:09:25.637Z,20.52
2018-09-26T19:11:51.649Z,20.47
2018-09-26T19:14:17.687Z,20.41
2018-09-26T19:16:44.719Z,20.38
2018-09-26T19:19:10.752Z,20.36
2018-09-26T19:21:36.828Z,20.35
2018-09-26T19:24:02.769Z,20.49
2018-09-26T19:26:28.750Z,20.54
2018-09-26T19:28:54.907Z,20.46
2018-09-26T19:31:20.896Z,20.41
2018-09-26T19:33:46.969Z,20.42
2018-09-26T19:36:14.113Z,20.46
2018-09-26T19:38:40.188Z,20.41
2018-09-26T19:41:06.223Z,20.32
2018-09-26T19:43:32.235Z,20.26
2018-09-26T19:45:59.245Z,20.27
2018-09-26T19:48:25.237Z,20.31
2018-09-26T19:50:51.239Z,20.29
2018-09-26T19:53:17.358Z,20.23
2018-09-26T19:55:44.374Z,20.18
2018-09-26T19:58:10.484Z,20.11
2018-09-26T20:00:36.663Z,20.12
2018-09-26T20:03:02.657Z,20.10
2018-09-26T20:05:28.617Z,20.13
2018-09-26T20:07:54.588Z,20.21
2018-09-26T20:10:20.710Z,20.30
2018-09-26T20:12:46.764Z,20.33
2018-09-26T20:15:12.770Z,20.41
2018-09-26T20:17:38.711Z,20.41
2018-09-26T20:20:04.663Z,20.36
2018-09-26T20:22:30.603Z,20.23
2018-09-26T20:24:56.657Z,20.11
2018-09-26T20:27:22.653Z,20.02
2018-09-26T20:29:48.834Z,19.96
2018-09-26T20:32:14.725Z,19.85
2018-09-26T20:34:40.709Z,19.78
2018-09-26T20:37:06.725Z,19.77
2018-09-26T20:39:32.670Z,19.81
2018-09-26T20:41:58.652Z,19.81
2018-09-26T20:44:24.620Z,19.84
2018-09-26T20:46:50.609Z,19.77
2018-09-26T20:49:16.591Z,19.85
2018-09-26T20:51:42.615Z,19.90
2018-09-26T20:54:08.556Z,19.88
2018-09-26T20:56:34.528Z,19.81
2018-09-26T20:59:00.486Z,19.79
2018-09-26T21:01:26.485Z,19.77
2018-09-26T21:03:52.430Z,19.71
2018-09-26T21:06:18.498Z,19.67
2018-09-26T21:08:44.425Z,19.65
2018-09-26T21:11:10.516Z,19.57
2018-09-26T21:13:36.480Z,19.58
2018-09-26T21:16:02.450Z,19.66
2018-09-26T21:18:28.454Z,19.70
2018-09-26T21:20:54.406Z,19.76
2018-09-26T21:23:20.402Z,19.85
2018-09-26T21:25:46.381Z,19.91
2018-09-26T21:28:12.334Z,19.94
2018-09-26T21:30:38.319Z,19.91
2018-09-26T21:33:04.270Z,19.95
2018-09-26T21:35:30.240Z,20.01
2018-09-26T21:37:56.204Z,20.03
2018-09-26T21:40:22.155Z,20.13
2018-09-26T21:42:48.184Z,20.26
2018-09-26T21:45:14.166Z,20.32
2018-09-26T21:47:40.120Z,20.35
2018-09-26T21:50:06.136Z,20.36
2018-09-26T21:52:32.086Z,20.40
2018-09-26T21:54:58.058Z,20.41
2018-09-26T21:57:24.085Z,20.40
2018-09-26T21:59:50.052Z,20.40
2018-09-26T22:02:16.035Z,20.44
2018-09-26T22:04:41.967Z,20.48
2018-09-26T22:07:07.932Z,20.52
2018-09-26T22:09:33.879Z,20.57
2018-09-26T22:11:59.824Z,20.57
2018-09-26T22:14:25.767Z,20.69
2018-09-26T22:16:51.753Z,20.77
2018-09-26T22:19:17.716Z,20.86
2018-09-26T22:21:43.668Z,20.98
2018-09-26T22:24:09.635Z,21.00
2018-09-26T22:26:35.580Z,21.12
2018-09-26T22:29:01.565Z,21.16
2018-09-26T22:31:27.529Z,21.20
2018-09-26T22:33:53.461Z,21.23
2018-09-26T22:36:19.385Z,21.31
2018-09-26T22:38:45.334Z,21.34
2018-09-26T22:41:11.305Z,21.45
2018-09-26T22:43:37.240Z,21.55
2018-09-26T22:46:03.180Z,21.58
2018-09-26T22:48:29.141Z,21.62
2018-09-26T22:50:55.099Z,21.64
2018-09-26T22:53:21.040Z,21.67
2018-09-26T22:55:47.010Z,21.70
2018-09-26T22:58:12.999Z,21.68
2018-09-26T23:00:38.934Z,21.74
2018-09-26T23:03:04.889Z,21.75
2018-09-26T23:05:30.841Z,21.78
2018-09-26T23:07:56.797Z,21.84
2018-09-26T23:10:22.758Z,21.84
2018-09-26T23:12:48.710Z,21.83
2018-09-26T23:15:14.669Z,21.86
2018-09-26T23:17:40.611Z,21.89
2018-09-26T23:20:06.574Z,21.97
2018-09-26T23:22:32.529Z,21.98
2018-09-26T23:24:58.490Z,21.95
2018-09-26T23:27:24.447Z,21.99
2018-09-26T23:29:50.399Z,22.00
2018-09-26T23:32:16.360Z,22.08
2018-09-26T23:34:42.298Z,22.10
2018-09-26T23:37:08.234Z,22.06
2018-09-26T23:39:34.176Z,22.01
2018-09-26T23:42:00.138Z,22.02
2018-09-26T23:44:26.077Z,22.02
2018-09-26T23:46:52.046Z,22.04
2018-09-26T23:49:17.996Z,22.07
2018-09-26T23:51:43.943Z,22.05
2018-09-26T23:54:09.876Z,22.11
2018-09-26T23:56:35.833Z,22.10
2018-09-26T23:59:01.801Z,22.13
